createdAt,value
2023-03-13T00:01:26.846Z,79.18
2023-03-13T00:03:55.570Z,79.19
2023-03-13T00:09:00.719Z,77.89
2023-03-13T00:11:28.086Z,78.68
2023-03-13T00:13:56.801Z,78.26
2023-03-13T00:16:24.141Z,78.00
2023-03-13T00:18:53.176Z,78.15
2023-03-13T00:21:22.087Z,78.80
2023-03-13T00:23:49.368Z,79.37
2023-03-13T00:26:18.762Z,79.50
2023-03-13T00:28:46.168Z,78.67
2023-03-13T00:31:12.774Z,79.18
2023-03-13T00:33:41.580Z,79.50
2023-03-13T00:36:11.725Z,79.06
2023-03-13T00:38:38.672Z,78.49
2023-03-13T00:41:06.504Z,78.71
2023-03-13T00:43:35.323Z,78.85
2023-03-13T00:46:02.389Z,78.77
2023-03-13T00:48:29.447Z,78.98
2023-03-13T00:50:56.116Z,78.71
2023-03-13T00:53:22.906Z,79.16
2023-03-13T00:55:54.804Z,78.73
2023-03-13T00:58:22.360Z,78.94
2023-03-13T01:00:48.949Z,79.23
2023-03-13T01:03:15.745Z,78.86
2023-03-13T01:05:42.783Z,78.59
2023-03-13T01:08:09.505Z,78.89
2023-03-13T01:10:36.074Z,79.08
2023-03-13T01:13:04.964Z,78.69
2023-03-13T01:15:34.838Z,78.49
2023-03-13T01:18:01.514Z,78.43
2023-03-13T01:20:29.996Z,78.51
2023-03-13T01:22:56.746Z,78.54
2023-03-13T01:31:19.307Z,78.19
2023-03-13T01:33:48.057Z,77.74
2023-03-13T01:36:15.053Z,77.68
2023-03-13T01:38:41.789Z,77.17
2023-03-13T01:41:11.214Z,76.94
2023-03-13T01:43:38.327Z,76.61
2023-03-13T01:46:07.580Z,76.36
2023-03-13T01:48:40.227Z,76.51
2023-03-13T01:51:14.739Z,76.05
2023-03-13T01:53:44.399Z,76.50
2023-03-13T01:56:17.305Z,76.06
2023-03-13T01:58:44.680Z,75.85
2023-03-13T02:01:13.027Z,75.52
2023-03-13T02:03:39.761Z,75.48
2023-03-13T02:06:08.162Z,75.41
2023-03-13T02:08:42.953Z,75.25
2023-03-13T02:11:34.112Z,74.53
2023-03-13T02:14:02.362Z,74.37
2023-03-13T02:16:29.411Z,74.00
2023-03-13T02:18:56.186Z,74.11
2023-03-13T02:21:36.808Z,73.51
2023-03-13T02:24:14.016Z,73.31
2023-03-13T02:26:40.882Z,73.25
2023-03-13T02:29:08.246Z,73.07
2023-03-13T02:31:34.798Z,72.87
2023-03-13T02:34:02.659Z,73.14
2023-03-13T02:36:31.154Z,72.84
2023-03-13T02:41:36.302Z,73.19
2023-03-13T02:44:02.874Z,72.32
2023-03-13T02:46:29.479Z,72.28
2023-03-13T02:48:57.242Z,72.06
2023-03-13T02:51:40.123Z,72.21
2023-03-13T02:54:12.138Z,72.33
2023-03-13T02:56:42.202Z,72.57
2023-03-13T02:59:08.724Z,72.58
2023-03-13T03:01:35.333Z,72.50
2023-03-13T03:04:01.912Z,72.63
2023-03-13T03:06:28.566Z,73.12
2023-03-13T03:08:55.084Z,73.18
2023-03-13T03:11:21.625Z,73.31
2023-03-13T03:13:48.180Z,74.14
2023-03-13T03:16:18.797Z,74.15
2023-03-13T03:18:45.618Z,74.31
2023-03-13T03:21:12.814Z,74.65
2023-03-13T03:23:39.453Z,75.17
2023-03-13T03:26:07.187Z,76.16
2023-03-13T03:28:33.852Z,77.18
2023-03-13T03:31:08.512Z,78.53
2023-03-13T03:33:35.425Z,79.59
2023-03-13T03:36:05.054Z,80.59
2023-03-13T03:38:31.842Z,80.86
2023-03-13T03:40:58.680Z,81.63
2023-03-13T03:43:25.329Z,82.26
2023-03-13T03:45:52.013Z,83.44
2023-03-13T03:48:18.664Z,83.56
2023-03-13T03:50:45.239Z,84.14
2023-03-13T03:53:11.838Z,82.99
2023-03-13T03:55:38.682Z,83.56
2023-03-13T03:58:05.251Z,83.48
2023-03-13T04:00:32.125Z,82.90
2023-03-13T04:02:58.773Z,82.86
2023-03-13T04:05:25.334Z,82.79
2023-03-13T04:07:51.887Z,82.70
2023-03-13T04:10:18.670Z,83.26
2023-03-13T04:12:45.273Z,82.76
2023-03-13T04:15:12.184Z,82.42
2023-03-13T04:17:39.006Z,82.37
2023-03-13T04:20:06.730Z,82.83
2023-03-13T04:22:33.505Z,82.50
2023-03-13T04:25:00.664Z,82.78
2023-03-13T04:27:27.265Z,83.33
2023-03-13T04:29:53.816Z,83.78
2023-03-13T04:32:20.358Z,83.92
2023-03-13T04:34:46.906Z,83.88
2023-03-13T04:37:13.509Z,84.22
2023-03-13T04:39:40.078Z,84.44
2023-03-13T04:42:06.788Z,84.66
2023-03-13T04:44:33.473Z,84.82
2023-03-13T04:47:00.040Z,85.24
2023-03-13T04:49:26.691Z,85.21
2023-03-13T04:51:53.259Z,85.46
2023-03-13T04:56:58.563Z,85.73
2023-03-13T04:59:25.125Z,86.42
2023-03-13T05:01:51.786Z,86.44
2023-03-13T05:06:49.637Z,86.67
2023-03-13T05:09:16.209Z,86.55
2023-03-13T05:11:42.817Z,86.95
2023-03-13T05:14:11.599Z,86.75
2023-03-13T05:16:38.899Z,86.74
2023-03-13T05:21:42.959Z,87.04
2023-03-13T05:24:09.691Z,87.37
2023-03-13T05:26:36.225Z,86.94
2023-03-13T05:29:02.992Z,87.01
2023-03-13T05:31:29.599Z,86.73
2023-03-13T05:33:56.254Z,86.94
2023-03-13T05:36:22.805Z,86.75
2023-03-13T05:38:49.336Z,86.63
2023-03-13T05:41:15.974Z,86.40
2023-03-13T05:43:42.497Z,86.47
2023-03-13T05:46:09.190Z,86.34
2023-03-13T05:48:35.759Z,86.20
2023-03-13T05:51:02.326Z,86.66
2023-03-13T05:53:28.884Z,87.22
2023-03-13T05:55:55.421Z,87.42
2023-03-13T05:58:22.024Z,87.23
2023-03-13T06:00:48.918Z,87.41
2023-03-13T06:03:15.548Z,86.73
2023-03-13T06:05:42.104Z,86.33
2023-03-13T06:08:08.684Z,86.91
2023-03-13T06:13:19.818Z,86.72
2023-03-13T06:15:54.785Z,86.75
2023-03-13T06:18:21.895Z,86.61
2023-03-13T06:20:49.753Z,86.24
2023-03-13T06:23:17.017Z,85.84
2023-03-13T06:25:47.830Z,85.73
2023-03-13T06:28:14.985Z,85.27
2023-03-13T06:30:41.692Z,85.24
2023-03-13T06:33:08.371Z,84.84
2023-03-13T06:35:46.171Z,84.96
2023-03-13T06:38:19.993Z,84.65
2023-03-13T06:40:47.969Z,84.82
2023-03-13T06:43:14.542Z,84.26
2023-03-13T06:45:41.067Z,84.50
2023-03-13T06:50:39.634Z,83.67
2023-03-13T06:53:06.242Z,84.26
2023-03-13T06:55:33.240Z,84.03
2023-03-13T06:58:00.042Z,84.17
2023-03-13T07:00:26.738Z,84.04
2023-03-13T07:02:54.090Z,84.23
2023-03-13T07:05:20.740Z,84.76
2023-03-13T07:07:47.340Z,84.86
2023-03-13T07:10:14.357Z,84.64
2023-03-13T07:12:41.078Z,84.17
2023-03-13T07:15:08.059Z,84.00
2023-03-13T07:17:34.907Z,84.32
2023-03-13T07:20:01.700Z,84.80
2023-03-13T07:22:28.325Z,84.63
2023-03-13T07:24:54.871Z,84.33
2023-03-13T07:27:21.536Z,84.64
2023-03-13T07:29:48.421Z,84.85
2023-03-13T07:32:15.298Z,84.70
2023-03-13T07:34:44.889Z,85.19
2023-03-13T07:37:16.042Z,85.70
2023-03-13T07:39:43.886Z,86.33
2023-03-13T07:42:12.020Z,85.96
2023-03-13T07:44:38.859Z,86.33
2023-03-13T07:47:05.789Z,86.58
2023-03-13T07:49:32.545Z,86.57
2023-03-13T07:51:59.134Z,86.66
2023-03-13T07:54:25.694Z,86.70
2023-03-13T07:56:52.327Z,86.81
2023-03-13T07:59:18.961Z,86.80
2023-03-13T08:01:45.547Z,86.93
2023-03-13T08:04:15.233Z,87.02
2023-03-13T08:06:42.253Z,86.34
2023-03-13T08:09:09.888Z,86.39
2023-03-13T08:14:14.307Z,85.47
2023-03-13T08:16:41.025Z,84.70
2023-03-13T08:19:07.700Z,84.11
2023-03-13T08:21:37.145Z,84.46
2023-03-13T08:24:07.170Z,84.16
2023-03-13T08:26:35.872Z,83.30
2023-03-13T08:29:06.037Z,82.69
2023-03-13T08:31:42.400Z,81.88
2023-03-13T08:34:09.006Z,81.25
2023-03-13T08:36:37.110Z,80.85
2023-03-13T08:39:06.812Z,80.80
2023-03-13T08:41:40.843Z,80.29
2023-03-13T08:44:10.323Z,79.98
2023-03-13T08:46:37.508Z,79.72
2023-03-13T08:49:06.157Z,79.55
2023-03-13T08:51:33.977Z,79.15
2023-03-13T08:54:01.121Z,79.34
2023-03-13T08:56:30.561Z,79.61
2023-03-13T08:59:01.628Z,79.17
2023-03-13T09:01:31.321Z,78.78
2023-03-13T09:06:30.111Z,79.22
2023-03-13T09:08:58.319Z,78.55
2023-03-13T09:11:25.745Z,77.55
2023-03-13T09:13:52.866Z,77.41
2023-03-13T09:16:24.583Z,77.26
2023-03-13T09:18:52.878Z,77.43
2023-03-13T09:21:27.948Z,77.15
2023-03-13T09:23:54.734Z,76.63
2023-03-13T09:26:23.381Z,76.33
2023-03-13T09:28:51.857Z,75.61
2023-03-13T09:31:21.695Z,75.99
2023-03-13T09:33:50.573Z,76.31
2023-03-13T09:36:21.481Z,75.26
2023-03-13T09:38:48.816Z,74.88
2023-03-13T09:41:18.279Z,74.62
2023-03-13T09:43:57.077Z,74.11
2023-03-13T09:46:31.727Z,73.97
2023-03-13T09:49:05.342Z,73.69
2023-03-13T09:51:42.961Z,73.87
2023-03-13T09:54:22.594Z,73.93
2023-03-13T09:57:03.867Z,73.34
2023-03-13T09:59:53.730Z,73.25
2023-03-13T10:02:56.390Z,72.80
2023-03-13T10:05:28.085Z,71.39
2023-03-13T10:08:16.022Z,71.93
2023-03-13T10:10:47.702Z,70.80
2023-03-13T10:13:24.851Z,69.04
2023-03-13T10:16:16.461Z,67.77
2023-03-13T10:18:49.219Z,68.28
2023-03-13T10:21:21.387Z,67.35
2023-03-13T10:24:01.137Z,66.44
2023-03-13T10:26:31.913Z,65.81
2023-03-13T10:29:11.958Z,65.46
2023-03-13T10:31:39.827Z,64.17
2023-03-13T10:34:14.370Z,63.66
2023-03-13T10:39:25.896Z,63.84
2023-03-13T10:41:58.976Z,63.77
2023-03-13T10:44:33.234Z,63.78
2023-03-13T10:47:02.759Z,62.45
2023-03-13T10:49:30.515Z,62.07
2023-03-13T10:52:03.145Z,62.28
2023-03-13T10:54:38.067Z,62.11
2023-03-13T10:57:19.474Z,62.43
2023-03-13T10:59:49.288Z,62.20
2023-03-13T11:02:34.079Z,63.34
2023-03-13T11:05:02.095Z,62.41
2023-03-13T11:07:30.028Z,60.58
2023-03-13T11:10:02.377Z,60.01
2023-03-13T11:12:34.413Z,59.09
2023-03-13T11:15:02.050Z,57.35
2023-03-13T11:17:40.308Z,57.84
2023-03-13T11:20:13.799Z,57.91
2023-03-13T11:22:53.595Z,58.07
2023-03-13T11:25:31.002Z,56.76
2023-03-13T11:28:03.610Z,56.80
2023-03-13T11:30:42.264Z,54.40
2023-03-13T11:33:23.009Z,53.38
2023-03-13T11:35:58.696Z,51.80
2023-03-13T11:38:36.456Z,50.75
2023-03-13T11:43:57.601Z,49.12
2023-03-13T11:46:49.243Z,48.81
2023-03-13T11:49:57.363Z,48.28
2023-03-13T11:52:43.938Z,47.54
2023-03-13T11:55:28.245Z,48.38
2023-03-13T11:58:03.554Z,47.32
2023-03-13T12:01:03.324Z,47.62
2023-03-13T12:04:11.825Z,48.69
2023-03-13T12:09:44.734Z,48.33
2023-03-13T12:12:29.573Z,51.02
2023-03-13T12:15:18.993Z,50.63
2023-03-13T12:17:52.275Z,49.28
2023-03-13T12:23:18.524Z,49.35
2023-03-13T12:25:45.250Z,49.04
2023-03-13T12:28:52.990Z,49.08
2023-03-13T12:31:26.612Z,47.64
2023-03-13T12:34:23.808Z,48.10
2023-03-13T12:37:02.193Z,47.08
2023-03-13T12:39:51.746Z,46.86
2023-03-13T12:42:21.004Z,46.28
2023-03-13T12:44:47.806Z,47.03
2023-03-13T12:47:29.727Z,47.06
2023-03-13T12:50:19.657Z,45.98
2023-03-13T12:52:59.366Z,45.97
2023-03-13T12:58:41.499Z,46.55
2023-03-13T13:01:17.955Z,45.88
2023-03-13T13:03:59.074Z,44.90
2023-03-13T13:06:27.945Z,45.16
2023-03-13T13:08:54.475Z,46.36
2023-03-13T13:11:39.432Z,45.77
2023-03-13T13:14:29.126Z,45.80
2023-03-13T13:17:11.391Z,46.42
2023-03-13T13:19:40.602Z,45.50
2023-03-13T13:22:38.076Z,45.30
2023-03-13T13:25:05.001Z,45.10
2023-03-13T13:27:31.548Z,44.81
2023-03-13T13:30:00.238Z,44.23
2023-03-13T13:32:39.494Z,44.38
2023-03-13T13:35:20.735Z,44.97
2023-03-13T13:37:49.505Z,45.32
2023-03-13T13:40:16.591Z,46.17
2023-03-13T13:43:04.286Z,45.47
2023-03-13T13:45:36.802Z,45.29
2023-03-13T13:48:24.475Z,46.06
2023-03-13T13:51:12.672Z,45.36
2023-03-13T13:53:45.121Z,46.00
2023-03-13T13:59:25.834Z,45.00
2023-03-13T14:02:15.541Z,45.01
2023-03-13T14:04:52.487Z,45.25
2023-03-13T14:07:28.134Z,45.27
2023-03-13T14:10:16.742Z,45.05
2023-03-13T14:12:57.275Z,45.79
2023-03-13T14:15:26.498Z,45.93
2023-03-13T14:17:55.993Z,45.82
2023-03-13T14:20:29.085Z,46.25
2023-03-13T14:23:01.596Z,46.11
2023-03-13T14:25:40.681Z,46.32
2023-03-13T14:28:18.245Z,47.06
2023-03-13T14:30:45.414Z,46.45
2023-03-13T14:33:12.489Z,46.90
2023-03-13T14:35:40.821Z,46.39
2023-03-13T14:38:07.458Z,46.31
2023-03-13T14:40:39.029Z,45.61
2023-03-13T14:43:19.333Z,45.89
2023-03-13T14:45:46.124Z,45.58
2023-03-13T14:48:27.091Z,46.47
2023-03-13T14:51:14.796Z,45.76
2023-03-13T14:53:57.628Z,45.49
2023-03-13T14:56:42.326Z,45.29
2023-03-13T14:59:15.049Z,44.95
2023-03-13T15:01:41.673Z,45.51
2023-03-13T15:04:08.385Z,45.14
2023-03-13T15:06:35.294Z,45.79
2023-03-13T15:09:14.179Z,45.74
2023-03-13T15:11:54.875Z,45.99
2023-03-13T15:14:37.032Z,45.37
2023-03-13T15:17:04.492Z,45.85
2023-03-13T15:19:32.373Z,45.67
2023-03-13T15:21:59.094Z,45.75
2023-03-13T15:24:25.824Z,45.20
2023-03-13T15:26:52.416Z,45.55
2023-03-13T15:29:20.293Z,45.62
2023-03-13T15:31:47.202Z,45.51
2023-03-13T15:34:15.128Z,45.55
2023-03-13T15:36:42.684Z,45.63
2023-03-13T15:39:22.554Z,46.17
2023-03-13T15:41:49.146Z,46.15
2023-03-13T15:44:15.692Z,46.32
2023-03-13T15:46:42.323Z,46.73
2023-03-13T15:49:13.081Z,46.60
2023-03-13T15:51:39.759Z,46.51
2023-03-13T15:54:06.432Z,46.14
2023-03-13T15:56:36.873Z,46.27
2023-03-13T15:59:12.859Z,46.59
2023-03-13T16:01:40.112Z,46.59
2023-03-13T16:06:38.157Z,46.74
2023-03-13T16:09:06.748Z,47.10
2023-03-13T16:11:33.846Z,46.50
2023-03-13T16:16:37.340Z,47.13
2023-03-13T16:19:04.587Z,48.09
2023-03-13T16:21:34.742Z,47.13
2023-03-13T16:24:02.118Z,47.56
2023-03-13T16:26:31.851Z,47.81
2023-03-13T16:28:58.943Z,47.90
2023-03-13T16:31:28.579Z,48.22
2023-03-13T16:33:56.749Z,48.29
2023-03-13T16:36:25.998Z,48.61
2023-03-13T16:38:52.869Z,48.49
2023-03-13T16:41:22.320Z,49.07
2023-03-13T16:43:49.350Z,49.06
2023-03-13T16:46:20.972Z,49.12
2023-03-13T16:48:48.945Z,50.05
2023-03-13T16:51:19.469Z,50.17
2023-03-13T16:53:48.620Z,51.31
2023-03-13T16:56:36.086Z,51.89
2023-03-13T16:59:07.598Z,52.69
2023-03-13T17:01:35.019Z,52.95
2023-03-13T17:04:01.642Z,54.24
2023-03-13T17:06:32.986Z,53.89
2023-03-13T17:09:02.214Z,54.32
2023-03-13T17:11:29.350Z,54.70
2023-03-13T17:13:56.247Z,55.70
2023-03-13T17:16:25.777Z,56.31
2023-03-13T17:18:53.788Z,57.06
2023-03-13T17:23:55.672Z,57.37
2023-03-13T17:26:24.752Z,58.06
2023-03-13T17:28:54.625Z,57.41
2023-03-13T17:31:22.372Z,57.75
2023-03-13T17:33:49.290Z,57.59
2023-03-13T17:36:22.057Z,57.45
2023-03-13T17:38:51.619Z,57.87
2023-03-13T17:41:20.768Z,58.08
2023-03-13T17:43:47.669Z,57.67
2023-03-13T17:46:30.361Z,57.99
2023-03-13T17:48:56.896Z,57.69
2023-03-13T17:54:05.074Z,58.29
2023-03-13T17:56:36.424Z,58.06
2023-03-13T17:59:04.386Z,58.23
2023-03-13T18:01:32.648Z,58.92
2023-03-13T18:03:59.794Z,58.85
2023-03-13T18:09:08.187Z,59.20
2023-03-13T18:11:36.526Z,59.41
2023-03-13T18:14:04.106Z,59.50
2023-03-13T18:16:37.841Z,59.16
2023-03-13T18:19:06.135Z,59.41
2023-03-13T18:21:33.134Z,59.04
2023-03-13T18:23:59.763Z,59.24
2023-03-13T18:26:31.570Z,59.50
2023-03-13T18:29:02.423Z,59.31
2023-03-13T18:31:32.041Z,60.39
2023-03-13T18:33:59.478Z,60.91
2023-03-13T18:36:27.382Z,61.84
2023-03-13T18:38:54.817Z,62.86
2023-03-13T18:41:21.749Z,64.69
2023-03-13T18:43:49.435Z,68.92
2023-03-13T18:46:28.112Z,74.21
2023-03-13T18:48:55.486Z,81.21
2023-03-13T18:51:25.215Z,87.04
2023-03-13T18:53:53.314Z,91.79
2023-03-13T18:56:29.522Z,95.78
2023-03-13T18:58:56.553Z,98.93
2023-03-13T19:01:26.520Z,100.00
2023-03-13T19:03:53.810Z,100.00
2023-03-13T19:06:25.748Z,100.00
2023-03-13T19:08:55.121Z,100.00
2023-03-13T19:11:27.696Z,100.00
2023-03-13T19:13:54.476Z,100.00
2023-03-13T19:16:31.034Z,100.00
2023-03-13T19:18:58.420Z,100.00
2023-03-13T19:21:30.261Z,100.00
2023-03-13T19:23:58.434Z,100.00
2023-03-13T19:26:31.733Z,100.00
2023-03-13T19:28:59.461Z,100.00
2023-03-13T19:31:26.675Z,100.00
2023-03-13T19:33:54.517Z,100.00
2023-03-13T19:39:01.014Z,100.00
2023-03-13T19:41:28.043Z,100.00
2023-03-13T19:43:54.583Z,100.00
2023-03-13T19:46:29.012Z,100.00
2023-03-13T19:49:00.644Z,100.00
2023-03-13T19:51:29.261Z,100.00
2023-03-13T19:53:56.354Z,100.00
2023-03-13T19:56:25.552Z,100.00
2023-03-13T19:58:57.046Z,100.00
2023-03-13T20:01:23.838Z,100.00
2023-03-13T20:03:50.433Z,100.00
2023-03-13T20:09:00.386Z,100.00
2023-03-13T20:11:28.350Z,100.00
2023-03-13T20:13:55.418Z,100.00
2023-03-13T20:16:22.963Z,100.00
2023-03-13T20:18:49.993Z,100.00
2023-03-13T20:21:17.507Z,100.00
2023-03-13T20:23:47.418Z,100.00
2023-03-13T20:26:16.550Z,100.00
2023-03-13T20:28:45.763Z,100.00
2023-03-13T20:31:13.517Z,100.00
2023-03-13T20:33:43.311Z,100.00
2023-03-13T20:36:12.819Z,100.00
2023-03-13T20:38:39.971Z,100.00
2023-03-13T20:41:07.505Z,100.00
2023-03-13T20:43:35.484Z,100.00
2023-03-13T20:46:02.394Z,100.00
2023-03-13T20:48:29.538Z,100.00
2023-03-13T20:50:58.339Z,100.00
2023-03-13T20:53:26.075Z,100.00
2023-03-13T20:55:54.576Z,100.00
2023-03-13T21:00:52.475Z,100.00
2023-03-13T21:03:19.602Z,100.00
2023-03-13T21:05:46.217Z,100.00
2023-03-13T21:08:12.752Z,100.00
2023-03-13T21:10:40.714Z,100.00
2023-03-13T21:13:09.225Z,100.00
2023-03-13T21:15:35.961Z,100.00
2023-03-13T21:18:02.718Z,100.00
2023-03-13T21:20:29.547Z,100.00
2023-03-13T21:22:56.436Z,100.00
2023-03-13T21:25:23.456Z,100.00
2023-03-13T21:27:50.481Z,100.00
2023-03-13T21:30:20.244Z,100.00
2023-03-13T21:32:47.561Z,100.00
2023-03-13T21:35:15.518Z,100.00
2023-03-13T21:37:42.934Z,100.00
2023-03-13T21:42:41.883Z,100.00
2023-03-13T21:45:09.164Z,100.00
2023-03-13T21:47:38.600Z,100.00
2023-03-13T21:52:41.358Z,100.00
2023-03-13T21:55:11.949Z,100.00
2023-03-13T21:57:39.115Z,100.00
2023-03-13T22:02:42.500Z,100.00
2023-03-13T22:05:09.461Z,100.00
2023-03-13T22:07:36.440Z,100.00
2023-03-13T22:10:03.542Z,100.00
2023-03-13T22:12:30.133Z,100.00
2023-03-13T22:14:57.817Z,100.00
2023-03-13T22:20:02.416Z,100.00
2023-03-13T22:22:29.639Z,100.00
2023-03-13T22:24:56.195Z,100.00
2023-03-13T22:27:24.273Z,100.00
2023-03-13T22:29:51.103Z,100.00
2023-03-13T22:32:17.717Z,100.00
2023-03-13T22:37:21.909Z,100.00
2023-03-13T22:39:50.135Z,100.00
2023-03-13T22:42:16.718Z,100.00
2023-03-13T22:44:43.252Z,100.00
2023-03-13T22:47:09.794Z,100.00
2023-03-13T22:49:36.322Z,100.00
2023-03-13T22:52:03.492Z,100.00
2023-03-13T22:54:30.372Z,100.00
2023-03-13T22:56:57.162Z,100.00
2023-03-13T22:59:23.719Z,100.00
2023-03-13T23:01:50.274Z,100.00
2023-03-13T23:04:16.831Z,100.00
2023-03-13T23:06:43.412Z,100.00
2023-03-13T23:09:10.305Z,100.00
2023-03-13T23:11:36.954Z,100.00
2023-03-13T23:14:03.813Z,100.00
2023-03-13T23:16:30.624Z,100.00
2023-03-13T23:18:57.258Z,100.00
2023-03-13T23:21:24.023Z,100.00
2023-03-13T23:23:53.856Z,100.00
2023-03-13T23:26:20.477Z,100.00
2023-03-13T23:28:47.042Z,100.00
2023-03-13T23:31:19.723Z,100.00
2023-03-13T23:33:47.126Z,100.00
2023-03-13T23:36:19.079Z,100.00
2023-03-13T23:38:49.738Z,100.00
2023-03-13T23:41:16.309Z,100.00
2023-03-13T23:43:42.908Z,100.00
2023-03-13T23:46:21.877Z,100.00
2023-03-13T23:48:48.458Z,100.00
2023-03-13T23:51:15.114Z,100.00
2023-03-13T23:53:43.334Z,100.00
2023-03-13T23:56:11.385Z,100.00
2023-03-13T23:58:38.331Z,100.00
